sensor_id;sensor_type;location;lat;lon;timestamp;pressure;altitude;pressure_sealevel;temperature;humidity
48668;BME280;34453;52.198;5.004;2023-12-04T00:01:24;99927.22;;;1.40;100.00
48668;BME280;34453;52.198;5.004;2023-12-04T00:03:51;99915.19;;;1.40;100.00
48668;BME280;34453;52.198;5.004;2023-12-04T00:06:16;99917.66;;;1.42;100.00
48668;BME280;34453;52.198;5.004;2023-12-04T00:08:41;99913.53;;;1.39;100.00
48668;BME280;34453;52.198;5.004;2023-12-04T00:11:07;99910.03;;;1.40;100.00
48668;BME280;34453;52.198;5.004;2023-12-04T00:13:32;99909.19;;;1.40;100.00
48668;BME280;34453;52.198;5.004;2023-12-04T00:15:58;99905.47;;;1.44;100.00
48668;BME280;34453;52.198;5.004;2023-12-04T00:18:23;99888.16;;;1.46;100.00
48668;BME280;34453;52.198;5.004;2023-12-04T00:20:49;99893.31;;;1.46;100.00
48668;BME280;34453;52.198;5.004;2023-12-04T00:23:14;99890.81;;;1.44;100.00
48668;BME280;34453;52.198;5.004;2023-12-04T00:25:39;99896.38;;;1.51;100.00
48668;BME280;34453;52.198;5.004;2023-12-04T00:28:06;99881.97;;;1.49;100.00
48668;BME280;34453;52.198;5.004;2023-12-04T00:30:31;99883.00;;;1.46;100.00
48668;BME280;34453;52.198;5.004;2023-12-04T00:32:57;99888.88;;;1.48;100.00
48668;BME280;34453;52.198;5.004;2023-12-04T00:35:22;99889.59;;;1.50;100.00
48668;BME280;34453;52.198;5.004;2023-12-04T00:37:47;99888.97;;;1.47;100.00
48668;BME280;34453;52.198;5.004;2023-12-04T00:40:12;99894.53;;;1.53;100.00
48668;BME280;34453;52.198;5.004;2023-12-04T00:42:38;99895.38;;;1.54;100.00
48668;BME280;34453;52.198;5.004;2023-12-04T00:45:03;99889.38;;;1.53;100.00
48668;BME280;34453;52.198;5.004;2023-12-04T00:47:29;99891.84;;;1.55;100.00
48668;BME280;34453;52.198;5.004;2023-12-04T00:49:54;99896.59;;;1.48;100.00
48668;BME280;34453;52.198;5.004;2023-12-04T00:52:19;99898.69;;;1.56;100.00
48668;BME280;34453;52.198;5.004;2023-12-04T00:54:45;99895.47;;;1.52;100.00
48668;BME280;34453;52.198;5.004;2023-12-04T00:57:10;99891.75;;;1.56;100.00
48668;BME280;34453;52.198;5.004;2023-12-04T00:59:35;99889.59;;;1.50;100.00
48668;BME280;34453;52.198;5.004;2023-12-04T01:02:00;99878.34;;;1.51;100.00
48668;BME280;34453;52.198;5.004;2023-12-04T01:04:26;99876.47;;;1.53;100.00
48668;BME280;34453;52.198;5.004;2023-12-04T01:06:51;99872.03;;;1.55;100.00
48668;BME280;34453;52.198;5.004;2023-12-04T01:09:17;99872.03;;;1.55;100.00
48668;BME280;34453;52.198;5.004;2023-12-04T01:11:42;99864.22;;;1.57;100.00
48668;BME280;34453;52.198;5.004;2023-12-04T01:14:07;99861.63;;;1.57;100.00
48668;BME280;34453;52.198;5.004;2023-12-04T01:16:33;99864.22;;;1.57;100.00
48668;BME280;34453;52.198;5.004;2023-12-04T01:18:58;99862.69;;;1.54;100.00
48668;BME280;34453;52.198;5.004;2023-12-04T01:21:23;99867.13;;;1.52;100.00
48668;BME280;34453;52.198;5.004;2023-12-04T01:23:49;99876.59;;;1.52;100.00
48668;BME280;34453;52.198;5.004;2023-12-04T01:26:14;99865.25;;;1.54;100.00
48668;BME280;34453;52.198;5.004;2023-12-04T01:28:39;99878.06;;;1.56;100.00
48668;BME280;34453;52.198;5.004;2023-12-04T01:31:05;99863.59;;;1.53;100.00
48668;BME280;34453;52.198;5.004;2023-12-04T01:33:34;99874.75;;;1.54;100.00
48668;BME280;34453;52.198;5.004;2023-12-04T01:36:00;99869.69;;;1.52;100.00
48668;BME280;34453;52.198;5.004;2023-12-04T01:38:25;99873.31;;;1.50;100.00
48668;BME280;34453;52.198;5.004;2023-12-04T01:40:50;99868.75;;;1.53;100.00
48668;BME280;34453;52.198;5.004;2023-12-04T01:43:16;99871.78;;;1.47;100.00
48668;BME280;34453;52.198;5.004;2023-12-04T01:45:41;99872.69;;;1.46;100.00
48668;BME280;34453;52.198;5.004;2023-12-04T01:48:06;99871.88;;;1.45;100.00
48668;BME280;34453;52.198;5.004;2023-12-04T01:50:33;99858.88;;;1.47;100.00
48668;BME280;34453;52.198;5.004;2023-12-04T01:52:59;99858.16;;;1.45;100.00
48668;BME280;34453;52.198;5.004;2023-12-04T01:55:25;99858.97;;;1.45;100.00
48668;BME280;34453;52.198;5.004;2023-12-04T01:57:50;99855.38;;;1.48;100.00
48668;BME280;34453;52.198;5.004;2023-12-04T02:00:16;99855.47;;;1.47;100.00
48668;BME280;34453;52.198;5.004;2023-12-04T02:02:41;99845.06;;;1.48;100.00
48668;BME280;34453;52.198;5.004;2023-12-04T02:05:10;99847.84;;;1.45;100.00
48668;BME280;34453;52.198;5.004;2023-12-04T02:07:36;99838.88;;;1.38;100.00
48668;BME280;34453;52.198;5.004;2023-12-04T02:10:03;99834.56;;;1.38;100.00
48668;BME280;34453;52.198;5.004;2023-12-04T02:12:28;99837.03;;;1.40;100.00
48668;BME280;34453;52.198;5.004;2023-12-04T02:14:54;99824.75;;;1.43;100.00
48668;BME280;34453;52.198;5.004;2023-12-04T02:17:19;99825.69;;;1.42;100.00
48668;BME280;34453;52.198;5.004;2023-12-04T02:19:45;99832.97;;;1.49;100.00
48668;BME280;34453;52.198;5.004;2023-12-04T02:22:10;99823.00;;;1.44;100.00
48668;BME280;34453;52.198;5.004;2023-12-04T02:24:35;99817.63;;;1.47;100.00
48668;BME280;34453;52.198;5.004;2023-12-04T02:27:07;99831.44;;;1.46;100.00
48668;BME280;34453;52.198;5.004;2023-12-04T02:29:37;99824.34;;;1.50;100.00
48668;BME280;34453;52.198;5.004;2023-12-04T02:32:12;99801.94;;;1.50;100.00
48668;BME280;34453;52.198;5.004;2023-12-04T02:34:40;99807.81;;;1.52;100.00
48668;BME280;34453;52.198;5.004;2023-12-04T02:37:06;99799.47;;;1.49;100.00
48668;BME280;34453;52.198;5.004;2023-12-04T02:39:33;99797.03;;;1.47;100.00
48668;BME280;34453;52.198;5.004;2023-12-04T02:41:58;99800.31;;;1.49;100.00
48668;BME280;34453;52.198;5.004;2023-12-04T02:44:24;99802.91;;;1.49;100.00
48668;BME280;34453;52.198;5.004;2023-12-04T02:46:49;99796.16;;;1.47;100.00
48668;BME280;34453;52.198;5.004;2023-12-04T02:49:14;99793.50;;;1.48;100.00
48668;BME280;34453;52.198;5.004;2023-12-04T02:51:40;99779.78;;;1.48;100.00
48668;BME280;34453;52.198;5.004;2023-12-04T02:54:05;99781.31;;;1.50;100.00
48668;BME280;34453;52.198;5.004;2023-12-04T02:56:31;99784.00;;;1.49;100.00
48668;BME280;34453;52.198;5.004;2023-12-04T02:58:56;99776.16;;;1.50;100.00
48668;BME280;34453;52.198;5.004;2023-12-04T03:01:21;99771.00;;;1.50;100.00
48668;BME280;34453;52.198;5.004;2023-12-04T03:03:46;99769.16;;;1.52;100.00
48668;BME280;34453;52.198;5.004;2023-12-04T03:06:12;99765.84;;;1.50;100.00
48668;BME280;34453;52.198;5.004;2023-12-04T03:08:37;99762.13;;;1.54;100.00
48668;BME280;34453;52.198;5.004;2023-12-04T03:11:04;99754.81;;;1.48;100.00
48668;BME280;34453;52.198;5.004;2023-12-04T03:13:29;99748.75;;;1.49;100.00
48668;BME280;34453;52.198;5.004;2023-12-04T03:15:54;99747.31;;;1.45;100.00
48668;BME280;34453;52.198;5.004;2023-12-04T03:18:20;99739.38;;;1.48;100.00
48668;BME280;34453;52.198;5.004;2023-12-04T03:20:45;99734.09;;;1.50;100.00
48668;BME280;34453;52.198;5.004;2023-12-04T03:23:10;99737.00;;;1.45;100.00
48668;BME280;34453;52.198;5.004;2023-12-04T03:25:35;99735.34;;;1.44;100.00
48668;BME280;34453;52.198;5.004;2023-12-04T03:28:01;99728.34;;;1.46;100.00
48668;BME280;34453;52.198;5.004;2023-12-04T03:30:26;99723.06;;;1.48;100.00
48668;BME280;34453;52.198;5.004;2023-12-04T03:32:52;99711.25;;;1.45;100.00
48668;BME280;34453;52.198;5.004;2023-12-04T03:35:17;99715.56;;;1.44;100.00
48668;BME280;34453;52.198;5.004;2023-12-04T03:37:42;99720.13;;;1.41;100.00
48668;BME280;34453;52.198;5.004;2023-12-04T03:40:08;99706.09;;;1.45;100.00
48668;BME280;34453;52.198;5.004;2023-12-04T03:42:33;99706.28;;;1.42;100.00
48668;BME280;34453;52.198;5.004;2023-12-04T03:44:59;99702.78;;;1.43;100.00
48668;BME280;34453;52.198;5.004;2023-12-04T03:47:24;99698.56;;;1.42;100.00
48668;BME280;34453;52.198;5.004;2023-12-04T03:49:50;99692.69;;;1.40;100.00
48668;BME280;34453;52.198;5.004;2023-12-04T03:52:15;99688.47;;;1.39;100.00
48668;BME280;34453;52.198;5.004;2023-12-04T03:54:41;99684.94;;;1.40;100.00
48668;BME280;34453;52.198;5.004;2023-12-04T03:57:07;99680.50;;;1.42;100.00
48668;BME280;34453;52.198;5.004;2023-12-04T03:59:33;99682.38;;;1.40;100.00
48668;BME280;34453;52.198;5.004;2023-12-04T04:01:58;99677.44;;;1.37;100.00
48668;BME280;34453;52.198;5.004;2023-12-04T04:04:23;99669.81;;;1.35;100.00
48668;BME280;34453;52.198;5.004;2023-12-04T04:06:49;99671.47;;;1.36;100.00
48668;BME280;34453;52.198;5.004;2023-12-04T04:09:14;99673.25;;;1.36;100.00
48668;BME280;34453;52.198;5.004;2023-12-04T04:11:39;99663.84;;;1.35;100.00
48668;BME280;34453;52.198;5.004;2023-12-04T04:14:05;99658.69;;;1.35;100.00
48668;BME280;34453;52.198;5.004;2023-12-04T04:16:30;99648.28;;;1.36;100.00
48668;BME280;34453;52.198;5.004;2023-12-04T04:18:55;99658.94;;;1.32;100.00
48668;BME280;34453;52.198;5.004;2023-12-04T04:21:20;99648.72;;;1.30;100.00
48668;BME280;34453;52.198;5.004;2023-12-04T04:23:46;99649.09;;;1.37;100.00
48668;BME280;34453;52.198;5.004;2023-12-04T04:26:11;99643.72;;;1.40;100.00
48668;BME280;34453;52.198;5.004;2023-12-04T04:28:36;99638.47;;;1.41;100.00
48668;BME280;34453;52.198;5.004;2023-12-04T04:31:02;99639.50;;;1.39;100.00
48668;BME280;34453;52.198;5.004;2023-12-04T04:33:27;99640.31;;;1.39;100.00
48668;BME280;34453;52.198;5.004;2023-12-04T04:35:52;99626.38;;;1.42;100.00
48668;BME280;34453;52.198;5.004;2023-12-04T04:38:17;99626.38;;;1.42;100.00
48668;BME280;34453;52.198;5.004;2023-12-04T04:40:43;99616.91;;;1.42;100.00
48668;BME280;34453;52.198;5.004;2023-12-04T04:43:12;99614.09;;;1.45;100.00
48668;BME280;34453;52.198;5.004;2023-12-04T04:45:37;99617.59;;;1.44;100.00
48668;BME280;34453;52.198;5.004;2023-12-04T04:48:02;99608.84;;;1.47;100.00
48668;BME280;34453;52.198;5.004;2023-12-04T04:50:28;99607.91;;;1.48;100.00
48668;BME280;34453;52.198;5.004;2023-12-04T04:52:53;99607.91;;;1.48;100.00
48668;BME280;34453;52.198;5.004;2023-12-04T04:55:18;99597.59;;;1.48;100.00
48668;BME280;34453;52.198;5.004;2023-12-04T04:57:44;99599.94;;;1.51;100.00
48668;BME280;34453;52.198;5.004;2023-12-04T05:00:09;99602.50;;;1.51;100.00
48668;BME280;34453;52.198;5.004;2023-12-04T05:02:35;99597.97;;;1.55;100.00
48668;BME280;34453;52.198;5.004;2023-12-04T05:05:02;99587.53;;;1.56;100.00
48668;BME280;34453;52.198;5.004;2023-12-04T05:07:28;99577.69;;;1.61;100.00
48668;BME280;34453;52.198;5.004;2023-12-04T05:09:53;99586.38;;;1.60;100.00
48668;BME280;34453;52.198;5.004;2023-12-04T05:12:19;99580.50;;;1.58;100.00
48668;BME280;34453;52.198;5.004;2023-12-04T05:14:44;99570.78;;;1.62;100.00
48668;BME280;34453;52.198;5.004;2023-12-04T05:17:09;99579.56;;;1.59;100.00
48668;BME280;34453;52.198;5.004;2023-12-04T05:19:35;99567.84;;;1.55;100.00
48668;BME280;34453;52.198;5.004;2023-12-04T05:22:00;99568.44;;;1.59;100.00
48668;BME280;34453;52.198;5.004;2023-12-04T05:24:25;99563.19;;;1.60;100.00
48668;BME280;34453;52.198;5.004;2023-12-04T05:26:50;99558.38;;;1.56;100.00
48668;BME280;34453;52.198;5.004;2023-12-04T05:29:16;99553.31;;;1.54;100.00
48668;BME280;34453;52.198;5.004;2023-12-04T05:31:41;99561.88;;;1.55;100.00
48668;BME280;34453;52.198;5.004;2023-12-04T05:34:07;99556.00;;;1.53;100.00
48668;BME280;34453;52.198;5.004;2023-12-04T05:36:32;99554.25;;;1.53;100.00
48668;BME280;34453;52.198;5.004;2023-12-04T05:38:57;99551.91;;;1.50;100.00
48668;BME280;34453;52.198;5.004;2023-12-04T05:41:23;99548.16;;;1.54;100.00
48668;BME280;34453;52.198;5.004;2023-12-04T05:43:48;99542.28;;;1.52;100.00
48668;BME280;34453;52.198;5.004;2023-12-04T05:46:13;99551.78;;;1.52;100.00
48668;BME280;34453;52.198;5.004;2023-12-04T05:48:39;99545.22;;;1.48;100.00
48668;BME280;34453;52.198;5.004;2023-12-04T05:51:04;99546.84;;;1.49;100.00
48668;BME280;34453;52.198;5.004;2023-12-04T05:53:29;99540.63;;;1.51;100.00
48668;BME280;34453;52.198;5.004;2023-12-04T05:55:55;99537.97;;;1.53;100.00
48668;BME280;34453;52.198;5.004;2023-12-04T05:58:20;99540.88;;;1.48;100.00
48668;BME280;34453;52.198;5.004;2023-12-04T06:00:45;99533.84;;;1.50;100.00
48668;BME280;34453;52.198;5.004;2023-12-04T06:03:11;99542.28;;;1.52;100.00
48668;BME280;34453;52.198;5.004;2023-12-04T06:05:36;99538.19;;;1.50;100.00
48668;BME280;34453;52.198;5.004;2023-12-04T06:08:01;99528.94;;;1.47;100.00
48668;BME280;34453;52.198;5.004;2023-12-04T06:10:27;99531.63;;;1.45;100.00
48668;BME280;34453;52.198;5.004;2023-12-04T06:12:52;99527.38;;;1.44;100.00
48668;BME280;34453;52.198;5.004;2023-12-04T06:15:17;99528.09;;;1.47;100.00
48668;BME280;34453;52.198;5.004;2023-12-04T06:17:43;99537.59;;;1.46;100.00
48668;BME280;34453;52.198;5.004;2023-12-04T06:20:08;99528.47;;;1.53;100.00
48668;BME280;34453;52.198;5.004;2023-12-04T06:22:36;99534.81;;;1.49;100.00
48668;BME280;34453;52.198;5.004;2023-12-04T06:25:02;99523.78;;;1.47;100.00
48668;BME280;34453;52.198;5.004;2023-12-04T06:27:27;99521.91;;;1.49;100.00
48668;BME280;34453;52.198;5.004;2023-12-04T06:29:52;99521.69;;;1.52;100.00
48668;BME280;34453;52.198;5.004;2023-12-04T06:32:18;99517.34;;;1.53;100.00
48668;BME280;34453;52.198;5.004;2023-12-04T06:34:44;99509.38;;;1.56;100.00
48668;BME280;34453;52.198;5.004;2023-12-04T06:37:10;99514.66;;;1.54;100.00
48668;BME280;34453;52.198;5.004;2023-12-04T06:39:36;99519.81;;;1.54;100.00
48668;BME280;34453;52.198;5.004;2023-12-04T06:42:02;99515.81;;;1.61;100.00
48668;BME280;34453;52.198;5.004;2023-12-04T06:44:27;99515.00;;;1.61;100.00
48668;BME280;34453;52.198;5.004;2023-12-04T06:46:53;99509.97;;;1.59;100.00
48668;BME280;34453;52.198;5.004;2023-12-04T06:49:19;99505.03;;;1.56;100.00
48668;BME280;34453;52.198;5.004;2023-12-04T06:51:44;99504.34;;;1.54;100.00
48668;BME280;34453;52.198;5.004;2023-12-04T06:54:09;99497.06;;;1.59;100.00
48668;BME280;34453;52.198;5.004;2023-12-04T06:56:37;99492.25;;;1.55;100.00
48668;BME280;34453;52.198;5.004;2023-12-04T06:59:02;99486.03;;;1.57;100.00
48668;BME280;34453;52.198;5.004;2023-12-04T07:01:27;99491.91;;;1.59;100.00
48668;BME280;34453;52.198;5.004;2023-12-04T07:03:53;99497.41;;;1.55;100.00
48668;BME280;34453;52.198;5.004;2023-12-04T07:06:18;99493.06;;;1.55;100.00
48668;BME280;34453;52.198;5.004;2023-12-04T07:08:43;99480.69;;;1.60;100.00
48668;BME280;34453;52.198;5.004;2023-12-04T07:11:09;99479.63;;;1.52;100.00
48668;BME280;34453;52.198;5.004;2023-12-04T07:13:34;99474.09;;;1.56;100.00
48668;BME280;34453;52.198;5.004;2023-12-04T07:15:59;99481.03;;;1.56;100.00
48668;BME280;34453;52.198;5.004;2023-12-04T07:18:25;99474.56;;;1.61;100.00
48668;BME280;34453;52.198;5.004;2023-12-04T07:20:51;99485.69;;;1.62;100.00
48668;BME280;34453;52.198;5.004;2023-12-04T07:23:16;99475.75;;;1.57;100.00
48668;BME280;34453;52.198;5.004;2023-12-04T07:25:42;99474.56;;;1.61;100.00
48668;BME280;34453;52.198;5.004;2023-12-04T07:28:07;99467.78;;;1.60;100.00
48668;BME280;34453;52.198;5.004;2023-12-04T07:30:33;99464.25;;;1.61;100.00
48668;BME280;34453;52.198;5.004;2023-12-04T07:32:58;99476.22;;;1.62;100.00
48668;BME280;34453;52.198;5.004;2023-12-04T07:35:25;99473.66;;;1.62;100.00
48668;BME280;34453;52.198;5.004;2023-12-04T07:37:50;99470.22;;;1.62;100.00
48668;BME280;34453;52.198;5.004;2023-12-04T07:40:16;99466.38;;;1.68;100.00
48668;BME280;34453;52.198;5.004;2023-12-04T07:42:41;99480.78;;;1.70;100.00
48668;BME280;34453;52.198;5.004;2023-12-04T07:45:08;99474.81;;;1.70;100.00
48668;BME280;34453;52.198;5.004;2023-12-04T07:47:33;99469.75;;;1.68;100.00
48668;BME280;34453;52.198;5.004;2023-12-04T07:49:59;99465.41;;;1.69;100.00
48668;BME280;34453;52.198;5.004;2023-12-04T07:52:25;99455.09;;;1.69;100.00
48668;BME280;34453;52.198;5.004;2023-12-04T07:54:50;99462.84;;;1.69;100.00
48668;BME280;34453;52.198;5.004;2023-12-04T07:57:15;99452.66;;;1.67;100.00
48668;BME280;34453;52.198;5.004;2023-12-04T07:59:41;99450.66;;;1.71;100.00
48668;BME280;34453;52.198;5.004;2023-12-04T08:02:07;99456.50;;;1.73;100.00
48668;BME280;34453;52.198;5.004;2023-12-04T08:04:32;99454.06;;;1.71;100.00
48668;BME280;34453;52.198;5.004;2023-12-04T08:06:58;99440.81;;;1.76;100.00
48668;BME280;34453;52.198;5.004;2023-12-04T08:09:23;99442.34;;;1.78;100.00
48668;BME280;34453;52.198;5.004;2023-12-04T08:11:48;99447.59;;;1.77;100.00
48668;BME280;34453;52.198;5.004;2023-12-04T08:14:14;99453.72;;;1.76;100.00
48668;BME280;34453;52.198;5.004;2023-12-04T08:16:41;99449.72;;;1.72;100.00
48668;BME280;34453;52.198;5.004;2023-12-04T08:19:06;99453.00;;;1.74;100.00
48668;BME280;34453;52.198;5.004;2023-12-04T08:21:32;99441.84;;;1.73;100.00
48668;BME280;34453;52.198;5.004;2023-12-04T08:23:57;99447.72;;;1.75;100.00
48668;BME280;34453;52.198;5.004;2023-12-04T08:26:23;99443.25;;;1.77;100.00
48668;BME280;34453;52.198;5.004;2023-12-04T08:28:49;99435.88;;;1.73;100.00
48668;BME280;34453;52.198;5.004;2023-12-04T08:31:15;99447.25;;;1.70;100.00
48668;BME280;34453;52.198;5.004;2023-12-04T08:33:40;99446.81;;;1.76;100.00
48668;BME280;34453;52.198;5.004;2023-12-04T08:36:05;99442.34;;;1.78;100.00
48668;BME280;34453;52.198;5.004;2023-12-04T08:38:31;99449.03;;;1.81;100.00
48668;BME280;34453;52.198;5.004;2023-12-04T08:40:56;99435.88;;;1.84;100.00
48668;BME280;34453;52.198;5.004;2023-12-04T08:43:22;99435.75;;;1.85;100.00
48668;BME280;34453;52.198;5.004;2023-12-04T08:45:49;99432.00;;;1.90;100.00
48668;BME280;34453;52.198;5.004;2023-12-04T08:48:14;99426.50;;;1.94;100.00
48668;BME280;34453;52.198;5.004;2023-12-04T08:50:40;99425.69;;;1.94;100.00
48668;BME280;34453;52.198;5.004;2023-12-04T08:53:05;99416.72;;;1.98;100.00
48668;BME280;34453;52.198;5.004;2023-12-04T08:55:30;99416.06;;;1.96;100.00
48668;BME280;34453;52.198;5.004;2023-12-04T08:57:56;99410.91;;;1.96;100.00
48668;BME280;34453;52.198;5.004;2023-12-04T09:00:22;99398.13;;;1.94;100.00
48668;BME280;34453;52.198;5.004;2023-12-04T09:03:02;99399.53;;;1.98;100.00
48668;BME280;34453;52.198;5.004;2023-12-04T09:05:27;99401.16;;;1.99;100.00
48668;BME280;34453;52.198;5.004;2023-12-04T09:07:53;99394.09;;;2.01;100.00
48668;BME280;34453;52.198;5.004;2023-12-04T09:10:18;99382.16;;;2.00;100.00
48668;BME280;34453;52.198;5.004;2023-12-04T09:12:43;99382.72;;;2.04;100.00
48668;BME280;34453;52.198;5.004;2023-12-04T09:15:10;99383.84;;;2.11;100.00
48668;BME280;34453;52.198;5.004;2023-12-04T09:17:36;99389.28;;;2.08;100.00
48668;BME280;34453;52.198;5.004;2023-12-04T09:20:02;99377.19;;;2.08;100.00
48668;BME280;34453;52.198;5.004;2023-12-04T09:22:27;99376.50;;;2.06;100.00
48668;BME280;34453;52.198;5.004;2023-12-04T09:24:53;99374.50;;;2.10;100.00
48668;BME280;34453;52.198;5.004;2023-12-04T09:27:18;99381.16;;;2.13;100.00
48668;BME280;34453;52.198;5.004;2023-12-04T09:29:43;99377.16;;;2.20;100.00
48668;BME280;34453;52.198;5.004;2023-12-04T09:32:09;99373.28;;;2.25;100.00
48668;BME280;34453;52.198;5.004;2023-12-04T09:34:35;99369.88;;;2.25;100.00
48668;BME280;34453;52.198;5.004;2023-12-04T09:37:00;99368.81;;;2.27;100.00
48668;BME280;34453;52.198;5.004;2023-12-04T09:39:25;99370.56;;;2.27;100.00
48668;BME280;34453;52.198;5.004;2023-12-04T09:41:51;99364.47;;;2.28;100.00
48668;BME280;34453;52.198;5.004;2023-12-04T09:44:17;99372.41;;;2.36;100.00
48668;BME280;34453;52.198;5.004;2023-12-04T09:46:42;99361.28;;;2.36;100.00
48668;BME280;34453;52.198;5.004;2023-12-04T09:49:08;99369.13;;;2.34;100.00
48668;BME280;34453;52.198;5.004;2023-12-04T09:51:34;99364.66;;;2.36;100.00
48668;BME280;34453;52.198;5.004;2023-12-04T09:54:00;99359.63;;;2.35;100.00
48668;BME280;34453;52.198;5.004;2023-12-04T09:56:27;99357.47;;;2.40;100.00
48668;BME280;34453;52.198;5.004;2023-12-04T09:58:58;99356.44;;;2.42;100.00
48668;BME280;34453;52.198;5.004;2023-12-04T10:01:29;99356.66;;;2.39;100.00
48668;BME280;34453;52.198;5.004;2023-12-04T10:03:58;99353.16;;;2.40;100.00
48668;BME280;34453;52.198;5.004;2023-12-04T10:06:27;99359.25;;;2.39;100.00
48668;BME280;34453;52.198;5.004;2023-12-04T10:08:54;99346.91;;;2.43;100.00
48668;BME280;34453;52.198;5.004;2023-12-04T10:11:22;99341.44;;;2.36;100.00
48668;BME280;34453;52.198;5.004;2023-12-04T10:13:48;99334.69;;;2.45;100.00
48668;BME280;34453;52.198;5.004;2023-12-04T10:16:13;99333.53;;;2.38;100.00
48668;BME280;34453;52.198;5.004;2023-12-04T10:18:39;99327.34;;;2.40;100.00
48668;BME280;34453;52.198;5.004;2023-12-04T10:21:04;99328.66;;;2.35;100.00
48668;BME280;34453;52.198;5.004;2023-12-04T10:23:42;99312.53;;;2.42;100.00
48668;BME280;34453;52.198;5.004;2023-12-04T10:26:08;99301.16;;;2.45;100.00
48668;BME280;34453;52.198;5.004;2023-12-04T10:28:34;99301.53;;;2.40;100.00
48668;BME280;34453;52.198;5.004;2023-12-04T10:30:59;99289.53;;;2.39;100.00
48668;BME280;34453;52.198;5.004;2023-12-04T10:33:25;99292.00;;;2.41;100.00
48668;BME280;34453;52.198;5.004;2023-12-04T10:35:53;99279.91;;;2.41;100.00
48668;BME280;34453;52.198;5.004;2023-12-04T10:38:20;99280.03;;;2.40;100.00
48668;BME280;34453;52.198;5.004;2023-12-04T10:40:46;99272.47;;;2.48;100.00
48668;BME280;34453;52.198;5.004;2023-12-04T10:45:39;99269.63;;;2.51;100.00
48668;BME280;34453;52.198;5.004;2023-12-04T10:48:06;99248.66;;;2.65;100.00
48668;BME280;34453;52.198;5.004;2023-12-04T10:50:32;99242.50;;;2.57;100.00
48668;BME280;34453;52.198;5.004;2023-12-04T10:52:59;99238.44;;;2.64;100.00
48668;BME280;34453;52.198;5.004;2023-12-04T10:55:25;99239.09;;;2.56;100.00
48668;BME280;34453;52.198;5.004;2023-12-04T10:57:50;99246.75;;;2.67;100.00
48668;BME280;34453;52.198;5.004;2023-12-04T11:00:16;99220.13;;;2.67;100.00
48668;BME280;34453;52.198;5.004;2023-12-04T11:02:43;99219.59;;;2.73;100.00
48668;BME280;34453;52.198;5.004;2023-12-04T11:05:15;99225.03;;;2.70;100.00
48668;BME280;34453;52.198;5.004;2023-12-04T11:07:50;99218.78;;;2.73;100.00
48668;BME280;34453;52.198;5.004;2023-12-04T11:10:16;99205.75;;;2.74;100.00
48668;BME280;34453;52.198;5.004;2023-12-04T11:12:44;99204.09;;;2.73;100.00
48668;BME280;34453;52.198;5.004;2023-12-04T11:15:10;99200.81;;;2.71;100.00
48668;BME280;34453;52.198;5.004;2023-12-04T11:17:39;99181.25;;;2.68;100.00
48668;BME280;34453;52.198;5.004;2023-12-04T11:20:14;99190.06;;;2.66;100.00
48668;BME280;34453;52.198;5.004;2023-12-04T11:22:42;99176.34;;;2.65;100.00
48668;BME280;34453;52.198;5.004;2023-12-04T11:25:08;99172.69;;;2.68;100.00
48668;BME280;34453;52.198;5.004;2023-12-04T11:27:33;99167.94;;;2.73;100.00
48668;BME280;34453;52.198;5.004;2023-12-04T11:29:59;99170.50;;;2.73;100.00
48668;BME280;34453;52.198;5.004;2023-12-04T11:32:28;99160.34;;;2.72;100.00
48668;BME280;34453;52.198;5.004;2023-12-04T11:34:58;99167.41;;;2.69;100.00
48668;BME280;34453;52.198;5.004;2023-12-04T11:37:25;99167.25;;;2.71;100.00
48668;BME280;34453;52.198;5.004;2023-12-04T11:39:51;99154.09;;;2.74;100.00
48668;BME280;34453;52.198;5.004;2023-12-04T11:42:19;99157.59;;;2.73;100.00
48668;BME280;34453;52.198;5.004;2023-12-04T11:44:47;99139.41;;;2.75;100.00
48668;BME280;34453;52.198;5.004;2023-12-04T11:47:12;99134.81;;;2.78;100.00
48668;BME280;34453;52.198;5.004;2023-12-04T11:49:38;99132.91;;;2.80;100.00
48668;BME280;34453;52.198;5.004;2023-12-04T11:52:03;99129.09;;;2.84;100.00
48668;BME280;34453;52.198;5.004;2023-12-04T11:54:37;99137.38;;;2.78;100.00
48668;BME280;34453;52.198;5.004;2023-12-04T11:59:40;99130.44;;;2.79;100.00
48668;BME280;34453;52.198;5.004;2023-12-04T12:02:07;99122.41;;;2.82;100.00
48668;BME280;34453;52.198;5.004;2023-12-04T12:04:33;99125.16;;;2.80;100.00
48668;BME280;34453;52.198;5.004;2023-12-04T12:06:58;99121.88;;;2.78;100.00
48668;BME280;34453;52.198;5.004;2023-12-04T12:09:23;99113.59;;;2.84;100.00
48668;BME280;34453;52.198;5.004;2023-12-04T12:11:49;99120.41;;;2.85;100.00
48668;BME280;34453;52.198;5.004;2023-12-04T12:14:14;99115.34;;;2.84;100.00
48668;BME280;34453;52.198;5.004;2023-12-04T12:16:40;99108.16;;;2.87;100.00
48668;BME280;34453;52.198;5.004;2023-12-04T12:19:05;99100.81;;;2.93;100.00
48668;BME280;34453;52.198;5.004;2023-12-04T12:21:30;99093.75;;;2.95;100.00
48668;BME280;34453;52.198;5.004;2023-12-04T12:23:56;99087.22;;;2.90;100.00
48668;BME280;34453;52.198;5.004;2023-12-04T12:26:21;99092.38;;;2.90;100.00
48668;BME280;34453;52.198;5.004;2023-12-04T12:28:46;99078.25;;;2.95;100.00
48668;BME280;34453;52.198;5.004;2023-12-04T12:31:16;99078.13;;;2.96;100.00
48668;BME280;34453;52.198;5.004;2023-12-04T12:33:41;99068.59;;;2.97;100.00
48668;BME280;34453;52.198;5.004;2023-12-04T12:36:06;99065.50;;;3.03;100.00
48668;BME280;34453;52.198;5.004;2023-12-04T12:38:32;99064.09;;;2.89;100.00
48668;BME280;34453;52.198;5.004;2023-12-04T12:41:01;99050.53;;;2.97;100.00
48668;BME280;34453;52.198;5.004;2023-12-04T12:43:27;99050.66;;;2.95;100.00
48668;BME280;34453;52.198;5.004;2023-12-04T12:45:52;99039.91;;;3.00;100.00
48668;BME280;34453;52.198;5.004;2023-12-04T12:48:18;99038.28;;;2.99;100.00
48668;BME280;34453;52.198;5.004;2023-12-04T12:50:43;99031.22;;;3.01;100.00
48668;BME280;34453;52.198;5.004;2023-12-04T12:53:12;99030.41;;;3.00;100.00
48668;BME280;34453;52.198;5.004;2023-12-04T12:55:40;99020.59;;;3.04;100.00
48668;BME280;34453;52.198;5.004;2023-12-04T12:58:06;99015.97;;;2.98;100.00